sensor_id;sensor_type;location;lat;lon;timestamp;P1;durP1;ratioP1;P2;durP2;ratioP2
16037;SDS011;8123;50.906;6.172;2022-08-01T00:01:20;3.47;;;3.10;;
16037;SDS011;8123;50.906;6.172;2022-08-01T00:03:46;3.37;;;3.07;;
16037;SDS011;8123;50.906;6.172;2022-08-01T00:06:12;10.03;;;3.77;;
16037;SDS011;8123;50.906;6.172;2022-08-01T00:08:37;4.10;;;3.50;;
16037;SDS011;8123;50.906;6.172;2022-08-01T00:11:03;3.53;;;3.33;;
16037;SDS011;8123;50.906;6.172;2022-08-01T00:13:28;6.10;;;3.67;;
16037;SDS011;8123;50.906;6.172;2022-08-01T00:15:54;3.40;;;3.10;;
16037;SDS011;8123;50.906;6.172;2022-08-01T00:18:20;6.63;;;2.93;;
16037;SDS011;8123;50.906;6.172;2022-08-01T00:20:46;3.60;;;3.30;;
16037;SDS011;8123;50.906;6.172;2022-08-01T00:23:12;3.60;;;3.33;;
16037;SDS011;8123;50.906;6.172;2022-08-01T00:25:37;4.43;;;3.30;;
16037;SDS011;8123;50.906;6.172;2022-08-01T00:28:03;4.50;;;3.20;;
16037;SDS011;8123;50.906;6.172;2022-08-01T00:30:33;5.00;;;3.63;;
16037;SDS011;8123;50.906;6.172;2022-08-01T00:33:00;5.83;;;3.30;;
16037;SDS011;8123;50.906;6.172;2022-08-01T00:35:27;5.37;;;3.47;;
16037;SDS011;8123;50.906;6.172;2022-08-01T00:37:52;6.10;;;3.83;;
16037;SDS011;8123;50.906;6.172;2022-08-01T00:40:18;4.47;;;3.80;;
16037;SDS011;8123;50.906;6.172;2022-08-01T00:42:44;5.03;;;4.00;;
16037;SDS011;8123;50.906;6.172;2022-08-01T00:45:10;7.00;;;3.70;;
16037;SDS011;8123;50.906;6.172;2022-08-01T00:47:36;3.97;;;3.57;;
16037;SDS011;8123;50.906;6.172;2022-08-01T00:50:06;6.30;;;3.60;;
16037;SDS011;8123;50.906;6.172;2022-08-01T00:52:32;7.90;;;4.50;;
16037;SDS011;8123;50.906;6.172;2022-08-01T00:54:59;4.97;;;3.80;;
16037;SDS011;8123;50.906;6.172;2022-08-01T00:57:24;7.17;;;3.47;;
16037;SDS011;8123;50.906;6.172;2022-08-01T00:59:50;5.73;;;3.97;;
16037;SDS011;8123;50.906;6.172;2022-08-01T01:02:17;8.00;;;4.80;;
16037;SDS011;8123;50.906;6.172;2022-08-01T01:04:43;3.93;;;3.63;;
16037;SDS011;8123;50.906;6.172;2022-08-01T01:07:12;4.70;;;3.80;;
16037;SDS011;8123;50.906;6.172;2022-08-01T01:12:44;7.10;;;3.93;;
16037;SDS011;8123;50.906;6.172;2022-08-01T01:15:33;5.07;;;3.60;;
16037;SDS011;8123;50.906;6.172;2022-08-01T01:18:07;4.50;;;4.10;;
16037;SDS011;8123;50.906;6.172;2022-08-01T01:20:35;11.50;;;4.33;;
16037;SDS011;8123;50.906;6.172;2022-08-01T01:25:59;8.50;;;4.40;;
16037;SDS011;8123;50.906;6.172;2022-08-01T01:31:25;4.53;;;3.90;;
16037;SDS011;8123;50.906;6.172;2022-08-01T01:33:52;3.70;;;3.27;;
16037;SDS011;8123;50.906;6.172;2022-08-01T01:36:20;5.53;;;3.60;;
16037;SDS011;8123;50.906;6.172;2022-08-01T01:38:46;12.67;;;3.80;;
16037;SDS011;8123;50.906;6.172;2022-08-01T01:41:14;4.60;;;3.80;;
16037;SDS011;8123;50.906;6.172;2022-08-01T01:43:42;5.87;;;3.30;;
16037;SDS011;8123;50.906;6.172;2022-08-01T01:46:09;3.00;;;2.80;;
16037;SDS011;8123;50.906;6.172;2022-08-01T01:48:35;4.10;;;3.80;;
16037;SDS011;8123;50.906;6.172;2022-08-01T01:51:04;6.53;;;4.00;;
16037;SDS011;8123;50.906;6.172;2022-08-01T01:53:31;4.50;;;3.20;;
16037;SDS011;8123;50.906;6.172;2022-08-01T01:55:58;8.40;;;3.83;;
16037;SDS011;8123;50.906;6.172;2022-08-01T01:58:26;3.60;;;3.30;;
16037;SDS011;8123;50.906;6.172;2022-08-01T02:00:54;4.80;;;3.10;;
16037;SDS011;8123;50.906;6.172;2022-08-01T02:03:21;3.80;;;3.50;;
16037;SDS011;8123;50.906;6.172;2022-08-01T02:05:49;4.90;;;3.27;;
16037;SDS011;8123;50.906;6.172;2022-08-01T02:08:17;4.37;;;3.97;;
16037;SDS011;8123;50.906;6.172;2022-08-01T02:10:44;2.83;;;2.63;;
16037;SDS011;8123;50.906;6.172;2022-08-01T02:13:30;3.70;;;3.40;;
16037;SDS011;8123;50.906;6.172;2022-08-01T02:15:58;5.70;;;3.50;;
16037;SDS011;8123;50.906;6.172;2022-08-01T02:18:25;6.07;;;3.53;;
16037;SDS011;8123;50.906;6.172;2022-08-01T02:20:51;6.83;;;4.03;;
16037;SDS011;8123;50.906;6.172;2022-08-01T02:23:19;6.37;;;3.33;;
16037;SDS011;8123;50.906;6.172;2022-08-01T02:25:50;5.40;;;3.67;;
16037;SDS011;8123;50.906;6.172;2022-08-01T02:28:25;4.43;;;3.80;;
16037;SDS011;8123;50.906;6.172;2022-08-01T02:31:04;3.30;;;3.10;;
16037;SDS011;8123;50.906;6.172;2022-08-01T02:33:40;3.13;;;3.00;;
16037;SDS011;8123;50.906;6.172;2022-08-01T02:36:08;5.73;;;3.20;;
16037;SDS011;8123;50.906;6.172;2022-08-01T02:38:37;6.23;;;3.70;;
16037;SDS011;8123;50.906;6.172;2022-08-01T02:41:12;3.60;;;3.30;;
16037;SDS011;8123;50.906;6.172;2022-08-01T02:43:42;4.00;;;3.47;;
16037;SDS011;8123;50.906;6.172;2022-08-01T02:46:20;4.53;;;3.60;;
16037;SDS011;8123;50.906;6.172;2022-08-01T02:48:49;3.63;;;3.00;;
16037;SDS011;8123;50.906;6.172;2022-08-01T02:51:18;4.13;;;3.30;;
16037;SDS011;8123;50.906;6.172;2022-08-01T02:53:46;5.43;;;3.47;;
16037;SDS011;8123;50.906;6.172;2022-08-01T02:56:13;9.37;;;4.53;;
16037;SDS011;8123;50.906;6.172;2022-08-01T02:58:40;5.87;;;3.80;;
16037;SDS011;8123;50.906;6.172;2022-08-01T03:01:07;8.13;;;4.53;;
16037;SDS011;8123;50.906;6.172;2022-08-01T03:03:34;5.70;;;3.37;;
16037;SDS011;8123;50.906;6.172;2022-08-01T03:06:02;7.80;;;4.17;;
16037;SDS011;8123;50.906;6.172;2022-08-01T03:08:29;7.27;;;3.70;;
16037;SDS011;8123;50.906;6.172;2022-08-01T03:10:56;3.70;;;3.23;;
16037;SDS011;8123;50.906;6.172;2022-08-01T03:13:25;4.77;;;3.87;;
16037;SDS011;8123;50.906;6.172;2022-08-01T03:15:53;6.30;;;4.20;;
16037;SDS011;8123;50.906;6.172;2022-08-01T03:18:20;4.93;;;3.40;;
16037;SDS011;8123;50.906;6.172;2022-08-01T03:20:49;4.27;;;3.30;;
16037;SDS011;8123;50.906;6.172;2022-08-01T03:23:17;7.47;;;3.57;;
16037;SDS011;8123;50.906;6.172;2022-08-01T03:25:43;6.07;;;3.60;;
16037;SDS011;8123;50.906;6.172;2022-08-01T03:28:11;4.17;;;3.87;;
16037;SDS011;8123;50.906;6.172;2022-08-01T03:30:38;3.77;;;3.50;;
16037;SDS011;8123;50.906;6.172;2022-08-01T03:33:05;4.70;;;4.20;;
16037;SDS011;8123;50.906;6.172;2022-08-01T03:35:36;4.63;;;3.63;;
16037;SDS011;8123;50.906;6.172;2022-08-01T03:38:04;8.33;;;4.20;;
16037;SDS011;8123;50.906;6.172;2022-08-01T03:43:12;3.83;;;3.33;;
16037;SDS011;8123;50.906;6.172;2022-08-01T03:45:45;4.20;;;3.90;;
16037;SDS011;8123;50.906;6.172;2022-08-01T03:48:16;10.37;;;4.50;;
16037;SDS011;8123;50.906;6.172;2022-08-01T03:50:44;8.00;;;4.67;;
16037;SDS011;8123;50.906;6.172;2022-08-01T03:53:13;4.53;;;4.00;;
16037;SDS011;8123;50.906;6.172;2022-08-01T03:55:41;4.10;;;3.70;;
16037;SDS011;8123;50.906;6.172;2022-08-01T03:58:08;4.83;;;3.73;;
16037;SDS011;8123;50.906;6.172;2022-08-01T04:00:36;6.83;;;4.10;;
16037;SDS011;8123;50.906;6.172;2022-08-01T04:03:07;19.13;;;5.03;;
16037;SDS011;8123;50.906;6.172;2022-08-01T04:05:33;5.63;;;4.43;;
16037;SDS011;8123;50.906;6.172;2022-08-01T04:08:00;5.93;;;4.13;;
16037;SDS011;8123;50.906;6.172;2022-08-01T04:10:27;9.17;;;5.53;;
16037;SDS011;8123;50.906;6.172;2022-08-01T04:12:54;11.77;;;5.33;;
16037;SDS011;8123;50.906;6.172;2022-08-01T04:15:20;6.07;;;4.70;;
16037;SDS011;8123;50.906;6.172;2022-08-01T04:17:46;4.20;;;3.90;;
16037;SDS011;8123;50.906;6.172;2022-08-01T04:20:11;10.27;;;4.63;;
16037;SDS011;8123;50.906;6.172;2022-08-01T04:22:38;5.73;;;4.33;;
16037;SDS011;8123;50.906;6.172;2022-08-01T04:25:05;10.17;;;4.37;;
16037;SDS011;8123;50.906;6.172;2022-08-01T04:27:37;8.77;;;4.80;;
16037;SDS011;8123;50.906;6.172;2022-08-01T04:30:05;5.07;;;4.57;;
16037;SDS011;8123;50.906;6.172;2022-08-01T04:32:33;5.00;;;4.50;;
16037;SDS011;8123;50.906;6.172;2022-08-01T04:35:02;6.20;;;4.83;;
16037;SDS011;8123;50.906;6.172;2022-08-01T04:37:32;10.20;;;4.63;;
16037;SDS011;8123;50.906;6.172;2022-08-01T04:40:02;6.73;;;4.03;;
16037;SDS011;8123;50.906;6.172;2022-08-01T04:42:30;4.97;;;3.77;;
16037;SDS011;8123;50.906;6.172;2022-08-01T04:44:57;4.43;;;3.70;;
16037;SDS011;8123;50.906;6.172;2022-08-01T04:47:22;9.13;;;4.80;;
16037;SDS011;8123;50.906;6.172;2022-08-01T04:49:50;13.10;;;3.53;;
16037;SDS011;8123;50.906;6.172;2022-08-01T04:52:16;11.47;;;4.93;;
16037;SDS011;8123;50.906;6.172;2022-08-01T04:54:42;7.00;;;4.40;;
16037;SDS011;8123;50.906;6.172;2022-08-01T04:57:08;7.60;;;4.27;;
16037;SDS011;8123;50.906;6.172;2022-08-01T04:59:35;6.60;;;5.00;;
16037;SDS011;8123;50.906;6.172;2022-08-01T05:02:24;5.40;;;4.60;;
16037;SDS011;8123;50.906;6.172;2022-08-01T05:04:53;5.73;;;4.67;;
16037;SDS011;8123;50.906;6.172;2022-08-01T05:07:20;6.83;;;5.10;;
16037;SDS011;8123;50.906;6.172;2022-08-01T05:09:45;9.87;;;5.50;;
16037;SDS011;8123;50.906;6.172;2022-08-01T05:12:11;9.27;;;5.43;;
16037;SDS011;8123;50.906;6.172;2022-08-01T05:14:37;8.40;;;5.60;;
16037;SDS011;8123;50.906;6.172;2022-08-01T05:17:06;11.30;;;4.97;;
16037;SDS011;8123;50.906;6.172;2022-08-01T05:19:33;7.83;;;5.60;;
16037;SDS011;8123;50.906;6.172;2022-08-01T05:22:00;8.97;;;6.30;;
16037;SDS011;8123;50.906;6.172;2022-08-01T05:24:29;13.30;;;6.93;;
16037;SDS011;8123;50.906;6.172;2022-08-01T05:26:56;17.40;;;7.87;;
16037;SDS011;8123;50.906;6.172;2022-08-01T05:29:22;10.67;;;7.10;;
16037;SDS011;8123;50.906;6.172;2022-08-01T05:31:48;12.23;;;7.60;;
16037;SDS011;8123;50.906;6.172;2022-08-01T05:34:14;14.47;;;7.57;;
16037;SDS011;8123;50.906;6.172;2022-08-01T05:36:40;12.13;;;7.37;;
16037;SDS011;8123;50.906;6.172;2022-08-01T05:39:06;14.73;;;7.30;;
16037;SDS011;8123;50.906;6.172;2022-08-01T05:41:31;14.53;;;7.60;;
16037;SDS011;8123;50.906;6.172;2022-08-01T05:43:57;24.33;;;8.37;;
16037;SDS011;8123;50.906;6.172;2022-08-01T05:46:23;14.10;;;7.40;;
16037;SDS011;8123;50.906;6.172;2022-08-01T05:48:49;15.20;;;8.73;;
16037;SDS011;8123;50.906;6.172;2022-08-01T05:51:14;11.53;;;7.30;;
16037;SDS011;8123;50.906;6.172;2022-08-01T05:53:40;14.43;;;7.80;;
16037;SDS011;8123;50.906;6.172;2022-08-01T05:56:05;12.30;;;7.80;;
16037;SDS011;8123;50.906;6.172;2022-08-01T05:58:31;19.53;;;8.47;;
16037;SDS011;8123;50.906;6.172;2022-08-01T06:00:57;15.97;;;8.33;;
16037;SDS011;8123;50.906;6.172;2022-08-01T06:03:23;18.03;;;9.67;;
16037;SDS011;8123;50.906;6.172;2022-08-01T06:05:50;18.33;;;10.87;;
16037;SDS011;8123;50.906;6.172;2022-08-01T06:08:16;20.73;;;11.60;;
16037;SDS011;8123;50.906;6.172;2022-08-01T06:10:42;18.50;;;10.20;;
16037;SDS011;8123;50.906;6.172;2022-08-01T06:13:08;14.77;;;10.10;;
16037;SDS011;8123;50.906;6.172;2022-08-01T06:15:33;18.10;;;10.37;;
16037;SDS011;8123;50.906;6.172;2022-08-01T06:17:59;16.83;;;10.97;;
16037;SDS011;8123;50.906;6.172;2022-08-01T06:20:25;16.20;;;10.97;;
16037;SDS011;8123;50.906;6.172;2022-08-01T06:22:50;16.77;;;10.20;;
16037;SDS011;8123;50.906;6.172;2022-08-01T06:25:17;17.90;;;11.30;;
16037;SDS011;8123;50.906;6.172;2022-08-01T06:27:43;23.10;;;11.37;;
16037;SDS011;8123;50.906;6.172;2022-08-01T06:30:09;22.63;;;11.13;;
16037;SDS011;8123;50.906;6.172;2022-08-01T06:32:35;18.60;;;11.67;;
16037;SDS011;8123;50.906;6.172;2022-08-01T06:35:00;31.23;;;13.43;;
16037;SDS011;8123;50.906;6.172;2022-08-01T06:37:30;25.77;;;13.73;;
16037;SDS011;8123;50.906;6.172;2022-08-01T06:39:56;32.60;;;14.60;;
16037;SDS011;8123;50.906;6.172;2022-08-01T06:42:28;23.13;;;14.87;;
16037;SDS011;8123;50.906;6.172;2022-08-01T06:44:56;22.37;;;14.60;;
16037;SDS011;8123;50.906;6.172;2022-08-01T06:47:22;28.57;;;15.03;;
16037;SDS011;8123;50.906;6.172;2022-08-01T06:49:48;25.50;;;13.20;;
16037;SDS011;8123;50.906;6.172;2022-08-01T06:52:13;27.60;;;14.30;;
16037;SDS011;8123;50.906;6.172;2022-08-01T06:54:39;24.37;;;14.63;;
16037;SDS011;8123;50.906;6.172;2022-08-01T06:57:05;21.53;;;14.30;;
16037;SDS011;8123;50.906;6.172;2022-08-01T06:59:31;30.30;;;16.33;;
16037;SDS011;8123;50.906;6.172;2022-08-01T07:01:56;29.07;;;14.10;;
16037;SDS011;8123;50.906;6.172;2022-08-01T07:04:22;23.87;;;14.60;;
16037;SDS011;8123;50.906;6.172;2022-08-01T07:06:48;31.47;;;15.17;;
16037;SDS011;8123;50.906;6.172;2022-08-01T07:09:13;28.67;;;15.03;;
16037;SDS011;8123;50.906;6.172;2022-08-01T07:11:39;28.30;;;14.80;;
16037;SDS011;8123;50.906;6.172;2022-08-01T07:14:04;24.60;;;15.20;;
16037;SDS011;8123;50.906;6.172;2022-08-01T07:16:30;23.27;;;15.47;;
16037;SDS011;8123;50.906;6.172;2022-08-01T07:18:55;26.57;;;15.10;;
16037;SDS011;8123;50.906;6.172;2022-08-01T07:21:21;25.17;;;16.60;;
16037;SDS011;8123;50.906;6.172;2022-08-01T07:23:47;27.63;;;16.30;;
16037;SDS011;8123;50.906;6.172;2022-08-01T07:26:12;25.70;;;15.83;;
16037;SDS011;8123;50.906;6.172;2022-08-01T07:28:38;30.50;;;15.23;;
16037;SDS011;8123;50.906;6.172;2022-08-01T07:31:03;23.27;;;15.57;;
16037;SDS011;8123;50.906;6.172;2022-08-01T07:33:29;31.13;;;16.43;;
16037;SDS011;8123;50.906;6.172;2022-08-01T07:35:55;26.17;;;15.80;;
16037;SDS011;8123;50.906;6.172;2022-08-01T07:38:21;30.03;;;16.13;;
16037;SDS011;8123;50.906;6.172;2022-08-01T07:40:46;25.33;;;14.00;;
16037;SDS011;8123;50.906;6.172;2022-08-01T07:43:13;24.90;;;14.70;;
16037;SDS011;8123;50.906;6.172;2022-08-01T07:45:39;26.27;;;15.07;;
16037;SDS011;8123;50.906;6.172;2022-08-01T07:48:06;28.33;;;15.53;;
16037;SDS011;8123;50.906;6.172;2022-08-01T07:50:32;23.23;;;13.67;;
16037;SDS011;8123;50.906;6.172;2022-08-01T07:52:58;24.10;;;12.37;;
16037;SDS011;8123;50.906;6.172;2022-08-01T07:55:24;33.03;;;16.90;;
16037;SDS011;8123;50.906;6.172;2022-08-01T07:57:51;25.07;;;14.00;;
16037;SDS011;8123;50.906;6.172;2022-08-01T08:00:17;27.53;;;14.03;;
16037;SDS011;8123;50.906;6.172;2022-08-01T08:02:43;25.90;;;14.30;;
16037;SDS011;8123;50.906;6.172;2022-08-01T08:05:09;30.03;;;14.60;;
16037;SDS011;8123;50.906;6.172;2022-08-01T08:07:36;21.70;;;13.20;;
16037;SDS011;8123;50.906;6.172;2022-08-01T08:10:02;27.87;;;12.50;;
16037;SDS011;8123;50.906;6.172;2022-08-01T08:12:30;21.63;;;13.90;;
16037;SDS011;8123;50.906;6.172;2022-08-01T08:14:56;18.50;;;13.20;;
16037;SDS011;8123;50.906;6.172;2022-08-01T08:17:24;18.00;;;12.10;;
16037;SDS011;8123;50.906;6.172;2022-08-01T08:19:50;20.50;;;12.90;;
16037;SDS011;8123;50.906;6.172;2022-08-01T08:22:15;18.37;;;11.83;;
16037;SDS011;8123;50.906;6.172;2022-08-01T08:24:41;15.80;;;12.17;;
16037;SDS011;8123;50.906;6.172;2022-08-01T08:27:07;19.43;;;13.23;;
16037;SDS011;8123;50.906;6.172;2022-08-01T08:29:32;18.27;;;11.90;;
16037;SDS011;8123;50.906;6.172;2022-08-01T08:31:59;19.70;;;12.50;;
16037;SDS011;8123;50.906;6.172;2022-08-01T08:34:25;28.50;;;13.07;;
16037;SDS011;8123;50.906;6.172;2022-08-01T08:36:53;23.47;;;12.90;;
16037;SDS011;8123;50.906;6.172;2022-08-01T08:39:20;20.20;;;12.90;;
16037;SDS011;8123;50.906;6.172;2022-08-01T08:41:46;20.00;;;12.17;;
16037;SDS011;8123;50.906;6.172;2022-08-01T08:44:12;17.33;;;11.23;;
16037;SDS011;8123;50.906;6.172;2022-08-01T08:46:41;18.83;;;12.43;;
16037;SDS011;8123;50.906;6.172;2022-08-01T08:49:09;25.77;;;13.07;;
16037;SDS011;8123;50.906;6.172;2022-08-01T08:51:38;45.70;;;14.40;;
16037;SDS011;8123;50.906;6.172;2022-08-01T08:54:04;21.50;;;13.87;;
16037;SDS011;8123;50.906;6.172;2022-08-01T08:56:31;25.27;;;13.87;;
16037;SDS011;8123;50.906;6.172;2022-08-01T08:59:00;21.50;;;13.30;;
16037;SDS011;8123;50.906;6.172;2022-08-01T09:01:27;24.43;;;12.70;;
16037;SDS011;8123;50.906;6.172;2022-08-01T09:03:53;17.27;;;12.60;;
16037;SDS011;8123;50.906;6.172;2022-08-01T09:06:19;26.10;;;13.80;;
16037;SDS011;8123;50.906;6.172;2022-08-01T09:08:45;22.27;;;13.03;;
16037;SDS011;8123;50.906;6.172;2022-08-01T09:11:11;17.83;;;12.37;;
16037;SDS011;8123;50.906;6.172;2022-08-01T09:13:37;18.23;;;10.67;;
16037;SDS011;8123;50.906;6.172;2022-08-01T09:16:03;19.00;;;12.40;;
16037;SDS011;8123;50.906;6.172;2022-08-01T09:23:49;19.67;;;13.00;;
16037;SDS011;8123;50.906;6.172;2022-08-01T09:26:17;27.97;;;12.63;;
16037;SDS011;8123;50.906;6.172;2022-08-01T09:28:45;19.17;;;11.90;;
16037;SDS011;8123;50.906;6.172;2022-08-01T09:31:13;19.93;;;12.50;;
16037;SDS011;8123;50.906;6.172;2022-08-01T09:36:17;17.67;;;12.17;;
16037;SDS011;8123;50.906;6.172;2022-08-01T09:38:44;17.17;;;12.80;;
16037;SDS011;8123;50.906;6.172;2022-08-01T09:41:10;19.30;;;12.30;;
16037;SDS011;8123;50.906;6.172;2022-08-01T09:43:36;19.13;;;12.10;;
16037;SDS011;8123;50.906;6.172;2022-08-01T09:46:20;21.43;;;13.30;;
16037;SDS011;8123;50.906;6.172;2022-08-01T09:49:04;23.90;;;12.97;;
16037;SDS011;8123;50.906;6.172;2022-08-01T09:51:36;32.50;;;13.37;;
16037;SDS011;8123;50.906;6.172;2022-08-01T09:54:04;22.80;;;14.07;;
16037;SDS011;8123;50.906;6.172;2022-08-01T09:56:38;21.20;;;14.27;;
16037;SDS011;8123;50.906;6.172;2022-08-01T09:59:05;23.83;;;14.27;;
16037;SDS011;8123;50.906;6.172;2022-08-01T10:01:45;26.73;;;12.93;;
16037;SDS011;8123;50.906;6.172;2022-08-01T10:04:13;21.10;;;14.30;;
16037;SDS011;8123;50.906;6.172;2022-08-01T10:06:41;22.50;;;13.30;;
16037;SDS011;8123;50.906;6.172;2022-08-01T10:09:09;18.47;;;13.27;;
16037;SDS011;8123;50.906;6.172;2022-08-01T10:11:40;19.77;;;14.97;;
16037;SDS011;8123;50.906;6.172;2022-08-01T10:14:07;21.33;;;13.97;;
16037;SDS011;8123;50.906;6.172;2022-08-01T10:16:33;17.77;;;13.80;;
16037;SDS011;8123;50.906;6.172;2022-08-01T10:19:01;22.97;;;13.30;;
16037;SDS011;8123;50.906;6.172;2022-08-01T10:21:32;16.50;;;11.60;;
16037;SDS011;8123;50.906;6.172;2022-08-01T10:23:59;16.60;;;12.57;;
16037;SDS011;8123;50.906;6.172;2022-08-01T10:26:27;25.27;;;11.87;;
16037;SDS011;8123;50.906;6.172;2022-08-01T10:28:57;17.30;;;11.87;;
16037;SDS011;8123;50.906;6.172;2022-08-01T10:31:22;17.13;;;11.77;;
16037;SDS011;8123;50.906;6.172;2022-08-01T10:33:49;15.33;;;11.90;;
16037;SDS011;8123;50.906;6.172;2022-08-01T10:36:17;12.77;;;9.87;;
16037;SDS011;8123;50.906;6.172;2022-08-01T10:38:46;14.70;;;10.57;;
16037;SDS011;8123;50.906;6.172;2022-08-01T10:41:12;11.17;;;9.10;;
16037;SDS011;8123;50.906;6.172;2022-08-01T10:43:41;14.37;;;10.13;;
16037;SDS011;8123;50.906;6.172;2022-08-01T10:46:07;11.33;;;9.40;;
16037;SDS011;8123;50.906;6.172;2022-08-01T10:51:11;9.50;;;7.53;;
16037;SDS011;8123;50.906;6.172;2022-08-01T10:53:45;12.23;;;9.70;;
16037;SDS011;8123;50.906;6.172;2022-08-01T10:56:12;9.03;;;8.07;;
16037;SDS011;8123;50.906;6.172;2022-08-01T10:58:38;8.70;;;7.80;;
16037;SDS011;8123;50.906;6.172;2022-08-01T11:03:39;10.07;;;6.83;;
16037;SDS011;8123;50.906;6.172;2022-08-01T11:06:05;8.20;;;6.57;;
16037;SDS011;8123;50.906;6.172;2022-08-01T11:08:31;8.00;;;7.20;;
16037;SDS011;8123;50.906;6.172;2022-08-01T11:11:02;7.70;;;6.93;;
16037;SDS011;8123;50.906;6.172;2022-08-01T11:16:36;5.60;;;5.10;;
16037;SDS011;8123;50.906;6.172;2022-08-01T11:19:04;12.70;;;4.93;;
16037;SDS011;8123;50.906;6.172;2022-08-01T11:27:16;5.50;;;4.93;;
16037;SDS011;8123;50.906;6.172;2022-08-01T11:32:47;5.30;;;4.80;;
16037;SDS011;8123;50.906;6.172;2022-08-01T11:35:15;5.17;;;4.77;;
16037;SDS011;8123;50.906;6.172;2022-08-01T11:37:41;7.13;;;4.57;;
16037;SDS011;8123;50.906;6.172;2022-08-01T11:40:20;5.60;;;5.10;;
16037;SDS011;8123;50.906;6.172;2022-08-01T11:42:48;5.60;;;5.10;;
16037;SDS011;8123;50.906;6.172;2022-08-01T11:45:14;7.47;;;4.40;;
16037;SDS011;8123;50.906;6.172;2022-08-01T11:47:48;5.07;;;4.67;;
16037;SDS011;8123;50.906;6.172;2022-08-01T11:50:34;5.63;;;5.17;;
16037;SDS011;8123;50.906;6.172;2022-08-01T11:53:05;5.60;;;5.10;;
16037;SDS011;8123;50.906;6.172;2022-08-01T11:55:32;8.90;;;5.57;;
16037;SDS011;8123;50.906;6.172;2022-08-01T11:58:06;4.93;;;4.53;;
16037;SDS011;8123;50.906;6.172;2022-08-01T12:00:33;5.60;;;4.80;;
16037;SDS011;8123;50.906;6.172;2022-08-01T12:03:05;4.90;;;4.50;;
16037;SDS011;8123;50.906;6.172;2022-08-01T12:05:33;6.77;;;5.00;;
16037;SDS011;8123;50.906;6.172;2022-08-01T12:08:02;5.60;;;5.10;;
16037;SDS011;8123;50.906;6.172;2022-08-01T12:10:31;6.07;;;4.97;;
16037;SDS011;8123;50.906;6.172;2022-08-01T12:13:05;5.77;;;5.27;;
16037;SDS011;8123;50.906;6.172;2022-08-01T12:15:33;6.27;;;5.67;;
16037;SDS011;8123;50.906;6.172;2022-08-01T12:18:04;5.77;;;5.27;;
16037;SDS011;8123;50.906;6.172;2022-08-01T12:20:32;6.77;;;6.17;;
16037;SDS011;8123;50.906;6.172;2022-08-01T12:23:03;6.10;;;5.53;;
16037;SDS011;8123;50.906;6.172;2022-08-01T12:25:32;6.00;;;5.50;;
16037;SDS011;8123;50.906;6.172;2022-08-01T12:28:02;5.50;;;5.00;;
16037;SDS011;8123;50.906;6.172;2022-08-01T12:30:29;7.10;;;6.50;;
16037;SDS011;8123;50.906;6.172;2022-08-01T12:32:56;10.10;;;6.17;;
16037;SDS011;8123;50.906;6.172;2022-08-01T12:35:23;5.90;;;5.40;;
16037;SDS011;8123;50.906;6.172;2022-08-01T12:37:51;8.03;;;5.97;;
16037;SDS011;8123;50.906;6.172;2022-08-01T12:42:48;5.03;;;4.67;;
16037;SDS011;8123;50.906;6.172;2022-08-01T12:45:17;4.80;;;4.50;;
16037;SDS011;8123;50.906;6.172;2022-08-01T12:47:48;3.53;;;3.33;;
16037;SDS011;8123;50.906;6.172;2022-08-01T12:50:17;4.27;;;3.83;;
16037;SDS011;8123;50.906;6.172;2022-08-01T12:52:45;3.40;;;3.10;;
16037;SDS011;8123;50.906;6.172;2022-08-01T12:55:13;3.80;;;3.50;;
16037;SDS011;8123;50.906;6.172;2022-08-01T12:57:41;4.37;;;4.00;;
16037;SDS011;8123;50.906;6.172;2022-08-01T13:00:20;17.40;;;4.30;;
16037;SDS011;8123;50.906;6.172;2022-08-01T13:02:59;4.10;;;3.80;;
16037;SDS011;8123;50.906;6.172;2022-08-01T13:05:27;3.97;;;3.67;;
16037;SDS011;8123;50.906;6.172;2022-08-01T13:08:08;3.93;;;3.63;;
16037;SDS011;8123;50.906;6.172;2022-08-01T13:10:35;3.93;;;3.63;;
16037;SDS011;8123;50.906;6.172;2022-08-01T13:13:01;4.07;;;3.77;;
16037;SDS011;8123;50.906;6.172;2022-08-01T13:15:28;4.40;;;4.07;;
16037;SDS011;8123;50.906;6.172;2022-08-01T13:17:57;3.83;;;3.47;;
16037;SDS011;8123;50.906;6.172;2022-08-01T13:20:24;5.13;;;3.30;;
16037;SDS011;8123;50.906;6.172;2022-08-01T13:23:09;2.93;;;2.83;;
16037;SDS011;8123;50.906;6.172;2022-08-01T13:25:47;4.17;;;3.87;;
16037;SDS011;8123;50.906;6.172;2022-08-01T13:28:18;4.00;;;3.70;;
16037;SDS011;8123;50.906;6.172;2022-08-01T13:30:52;3.63;;;3.13;;
16037;SDS011;8123;50.906;6.172;2022-08-01T13:33:40;3.40;;;3.13;;
16037;SDS011;8123;50.906;6.172;2022-08-01T13:36:10;4.53;;;4.13;;
16037;SDS011;8123;50.906;6.172;2022-08-01T13:38:38;3.57;;;3.37;;
16037;SDS011;8123;50.906;6.172;2022-08-01T13:41:23;2.77;;;2.67;;
16037;SDS011;8123;50.906;6.172;2022-08-01T13:43:48;3.87;;;3.67;;
16037;SDS011;8123;50.906;6.172;2022-08-01T13:46:14;3.97;;;3.67;;
16037;SDS011;8123;50.906;6.172;2022-08-01T13:48:40;3.50;;;3.20;;
16037;SDS011;8123;50.906;6.172;2022-08-01T13:51:06;3.43;;;3.23;;
16037;SDS011;8123;50.906;6.172;2022-08-01T13:53:31;5.30;;;2.43;;
16037;SDS011;8123;50.906;6.172;2022-08-01T13:55:57;2.50;;;2.40;;
16037;SDS011;8123;50.906;6.172;2022-08-01T13:58:23;3.70;;;3.23;;
16037;SDS011;8123;50.906;6.172;2022-08-01T14:00:49;4.53;;;3.77;;
16037;SDS011;8123;50.906;6.172;2022-08-01T14:03:14;3.33;;;3.13;;
16037;SDS011;8123;50.906;6.172;2022-08-01T14:05:41;2.67;;;2.57;;
16037;SDS011;8123;50.906;6.172;2022-08-01T14:08:08;6.93;;;2.63;;
16037;SDS011;8123;50.906;6.172;2022-08-01T14:10:34;5.00;;;2.80;;
16037;SDS011;8123;50.906;6.172;2022-08-01T14:13:00;5.00;;;2.53;;
16037;SDS011;8123;50.906;6.172;2022-08-01T14:15:26;2.50;;;2.40;;
16037;SDS011;8123;50.906;6.172;2022-08-01T14:17:51;4.90;;;2.60;;
16037;SDS011;8123;50.906;6.172;2022-08-01T14:20:17;3.80;;;2.70;;
16037;SDS011;8123;50.906;6.172;2022-08-01T14:22:47;3.03;;;2.70;;
16037;SDS011;8123;50.906;6.172;2022-08-01T14:25:13;3.30;;;3.10;;
16037;SDS011;8123;50.906;6.172;2022-08-01T14:27:39;4.07;;;3.70;;
16037;SDS011;8123;50.906;6.172;2022-08-01T14:30:06;5.67;;;3.40;;
16037;SDS011;8123;50.906;6.172;2022-08-01T14:32:33;7.80;;;3.00;;
16037;SDS011;8123;50.906;6.172;2022-08-01T14:34:59;3.53;;;3.27;;
16037;SDS011;8123;50.906;6.172;2022-08-01T14:37:29;3.93;;;3.63;;
16037;SDS011;8123;50.906;6.172;2022-08-01T14:39:58;3.83;;;3.30;;
16037;SDS011;8123;50.906;6.172;2022-08-01T14:42:24;4.57;;;3.53;;
16037;SDS011;8123;50.906;6.172;2022-08-01T14:44:51;6.47;;;3.43;;
16037;SDS011;8123;50.906;6.172;2022-08-01T14:47:16;4.87;;;4.40;;
16037;SDS011;8123;50.906;6.172;2022-08-01T14:49:42;7.33;;;3.30;;
16037;SDS011;8123;50.906;6.172;2022-08-01T14:52:07;4.93;;;3.20;;
16037;SDS011;8123;50.906;6.172;2022-08-01T14:54:33;4.17;;;3.07;;
16037;SDS011;8123;50.906;6.172;2022-08-01T14:56:59;4.60;;;3.30;;
16037;SDS011;8123;50.906;6.172;2022-08-01T14:59:24;2.90;;;2.70;;
16037;SDS011;8123;50.906;6.172;2022-08-01T15:01:50;6.23;;;3.43;;
16037;SDS011;8123;50.906;6.172;2022-08-01T15:04:16;10.33;;;3.60;;
16037;SDS011;8123;50.906;6.172;2022-08-01T15:06:42;8.57;;;3.10;;
16037;SDS011;8123;50.906;6.172;2022-08-01T15:09:08;4.83;;;3.97;;
16037;SDS011;8123;50.906;6.172;2022-08-01T15:11:34;4.43;;;4.00;;
16037;SDS011;8123;50.906;6.172;2022-08-01T15:13:59;5.90;;;3.57;;
16037;SDS011;8123;50.906;6.172;2022-08-01T15:17:04;3.40;;;3.10;;
16037;SDS011;8123;50.906;6.172;2022-08-01T15:19:30;3.57;;;3.03;;
16037;SDS011;8123;50.906;6.172;2022-08-01T15:21:55;3.90;;;3.57;;
16037;SDS011;8123;50.906;6.172;2022-08-01T15:24:21;4.03;;;3.60;;
16037;SDS011;8123;50.906;6.172;2022-08-01T15:26:46;3.60;;;3.40;;
16037;SDS011;8123;50.906;6.172;2022-08-01T15:29:12;10.73;;;3.10;;
16037;SDS011;8123;50.906;6.172;2022-08-01T15:31:38;3.70;;;3.40;;
16037;SDS011;8123;50.906;6.172;2022-08-01T15:34:04;3.73;;;3.43;;
16037;SDS011;8123;50.906;6.172;2022-08-01T15:36:29;4.03;;;3.47;;